createdAt,value
2022-10-18T00:01:25.262Z,6.32
2022-10-18T00:03:53.161Z,5.88
2022-10-18T00:06:20.976Z,4.70
2022-10-18T00:08:49.748Z,5.20
2022-10-18T00:11:19.415Z,5.25
2022-10-18T00:13:47.361Z,5.82
2022-10-18T00:16:17.565Z,5.82
2022-10-18T00:18:47.935Z,4.97
2022-10-18T00:21:17.850Z,5.28
2022-10-18T00:23:48.527Z,4.97
2022-10-18T00:26:18.117Z,5.18
2022-10-18T00:28:51.078Z,5.55
2022-10-18T00:31:21.180Z,4.72
2022-10-18T00:33:51.450Z,4.82
2022-10-18T00:36:20.053Z,4.85
2022-10-18T00:38:48.950Z,4.47
2022-10-18T00:41:20.499Z,4.45
2022-10-18T00:43:59.763Z,4.28
2022-10-18T00:46:29.657Z,4.75
2022-10-18T00:48:59.514Z,4.50
2022-10-18T00:51:31.912Z,5.28
2022-10-18T00:54:00.052Z,5.15
2022-10-18T00:56:28.064Z,3.92
2022-10-18T00:58:58.476Z,4.57
2022-10-18T01:01:28.377Z,4.00
2022-10-18T01:03:57.395Z,4.13
2022-10-18T01:06:28.130Z,4.38
2022-10-18T01:09:08.102Z,4.15
2022-10-18T01:11:56.920Z,3.65
2022-10-18T01:14:39.511Z,4.20
2022-10-18T01:17:13.149Z,4.22
2022-10-18T01:20:22.526Z,4.65
2022-10-18T01:22:57.720Z,4.07
2022-10-18T01:25:37.629Z,4.40
2022-10-18T01:28:21.065Z,4.10
2022-10-18T01:30:54.929Z,4.07
2022-10-18T01:33:30.047Z,4.03
2022-10-18T01:36:02.767Z,4.07
2022-10-18T01:38:33.333Z,4.03
2022-10-18T01:41:04.330Z,4.10
2022-10-18T01:43:33.883Z,4.10
2022-10-18T01:46:05.704Z,4.13
2022-10-18T01:48:33.966Z,4.50
2022-10-18T01:51:01.786Z,3.97
2022-10-18T01:53:32.171Z,4.20
2022-10-18T01:56:21.739Z,3.90
2022-10-18T01:59:03.639Z,4.18
2022-10-18T02:01:42.252Z,3.83
2022-10-18T02:04:21.411Z,3.70
2022-10-18T02:06:55.804Z,4.28
2022-10-18T02:09:34.326Z,3.95
2022-10-18T02:12:04.463Z,4.07
2022-10-18T02:14:34.046Z,4.28
2022-10-18T02:17:07.136Z,4.25
2022-10-18T02:19:39.631Z,3.97
2022-10-18T02:22:10.763Z,4.18
2022-10-18T02:24:42.245Z,7.93
2022-10-18T02:27:10.647Z,7.25
2022-10-18T02:29:39.354Z,7.25
2022-10-18T02:32:14.269Z,7.47
2022-10-18T02:34:46.182Z,8.05
2022-10-18T02:37:15.622Z,7.55
2022-10-18T02:39:47.242Z,6.35
2022-10-18T02:42:16.569Z,5.53
2022-10-18T02:44:44.426Z,7.30
2022-10-18T02:47:13.941Z,6.13
2022-10-18T02:49:44.166Z,7.25
2022-10-18T02:52:11.981Z,7.07
2022-10-18T02:54:40.086Z,6.60
2022-10-18T02:57:09.535Z,7.30
2022-10-18T02:59:37.333Z,6.75
2022-10-18T03:02:05.371Z,6.32
2022-10-18T03:04:34.665Z,7.53
2022-10-18T03:07:02.501Z,5.93
2022-10-18T03:09:30.380Z,5.75
2022-10-18T03:11:58.476Z,5.60
2022-10-18T03:14:26.377Z,5.30
2022-10-18T03:16:54.498Z,6.00
2022-10-18T03:19:22.358Z,6.72
2022-10-18T03:21:51.565Z,6.45
2022-10-18T03:24:19.472Z,6.03
2022-10-18T03:26:47.564Z,6.13
2022-10-18T03:29:15.421Z,5.88
2022-10-18T03:31:43.502Z,5.18
2022-10-18T03:34:11.320Z,6.07
2022-10-18T03:36:41.329Z,6.65
2022-10-18T03:39:11.980Z,5.07
2022-10-18T03:41:40.065Z,4.85
2022-10-18T03:44:08.005Z,5.38
2022-10-18T03:46:35.956Z,5.82
2022-10-18T03:49:03.878Z,4.65
2022-10-18T03:51:31.816Z,5.63
2022-10-18T03:53:59.686Z,5.88
2022-10-18T03:56:28.965Z,5.10
2022-10-18T03:58:57.245Z,5.50
2022-10-18T04:01:25.304Z,5.03
2022-10-18T04:03:53.129Z,5.28
2022-10-18T04:06:21.121Z,5.15
2022-10-18T04:08:48.946Z,4.60
2022-10-18T04:11:16.720Z,5.10
2022-10-18T04:13:45.898Z,5.28
2022-10-18T04:16:13.738Z,5.35
2022-10-18T04:18:41.570Z,5.35
2022-10-18T04:21:09.360Z,5.90
2022-10-18T04:23:38.762Z,5.55
2022-10-18T04:26:07.329Z,5.25
2022-10-18T04:28:39.818Z,5.75
2022-10-18T04:31:09.686Z,4.95
2022-10-18T04:33:37.889Z,4.70
2022-10-18T04:36:06.218Z,5.28
2022-10-18T04:38:34.079Z,5.55
2022-10-18T04:41:01.900Z,5.72
2022-10-18T04:43:30.113Z,5.85
2022-10-18T04:45:58.048Z,6.13
2022-10-18T04:48:27.760Z,5.40
2022-10-18T04:50:55.712Z,5.82
2022-10-18T04:53:23.605Z,5.93
2022-10-18T04:55:54.911Z,5.20
2022-10-18T04:58:23.473Z,5.60
2022-10-18T05:00:51.793Z,6.72
2022-10-18T05:03:19.627Z,8.18
2022-10-18T05:06:03.955Z,6.38
2022-10-18T05:08:33.882Z,6.40
2022-10-18T05:11:02.746Z,6.05
2022-10-18T05:13:31.495Z,7.07
2022-10-18T05:16:00.875Z,7.10
2022-10-18T05:18:29.070Z,6.30
2022-10-18T05:20:58.721Z,5.90
2022-10-18T05:23:26.628Z,7.03
2022-10-18T05:25:55.237Z,6.30
2022-10-18T05:28:41.111Z,6.15
2022-10-18T05:31:11.608Z,6.13
2022-10-18T05:33:40.153Z,5.85
2022-10-18T05:36:10.434Z,6.35
2022-10-18T05:38:41.843Z,5.20
2022-10-18T05:41:09.893Z,5.60
2022-10-18T05:43:37.677Z,5.15
2022-10-18T05:46:11.822Z,5.60
2022-10-18T05:48:42.801Z,5.60
2022-10-18T05:51:12.305Z,5.35
2022-10-18T05:53:40.330Z,5.28
2022-10-18T05:56:11.665Z,5.18
2022-10-18T05:58:39.881Z,4.75
2022-10-18T06:01:09.345Z,4.20
2022-10-18T06:03:37.610Z,4.72
2022-10-18T06:06:07.591Z,4.65
2022-10-18T06:08:38.064Z,5.50
2022-10-18T06:11:08.033Z,5.28
2022-10-18T06:13:35.993Z,5.32
2022-10-18T06:16:03.767Z,5.18
2022-10-18T06:18:31.761Z,6.20
2022-10-18T06:21:00.063Z,4.97
2022-10-18T06:23:28.909Z,5.45
2022-10-18T06:26:01.368Z,5.85
2022-10-18T06:28:29.773Z,5.13
2022-10-18T06:30:58.206Z,5.38
2022-10-18T06:33:26.128Z,5.80
2022-10-18T06:35:59.109Z,5.25
2022-10-18T06:38:27.765Z,5.60
2022-10-18T06:40:56.787Z,5.78
2022-10-18T06:43:26.393Z,5.55
2022-10-18T06:45:55.283Z,6.15
2022-10-18T06:48:23.873Z,5.93
2022-10-18T06:50:53.276Z,6.32
2022-10-18T06:53:21.097Z,5.97
2022-10-18T06:55:48.923Z,6.40
2022-10-18T06:58:16.966Z,5.97
2022-10-18T07:00:46.977Z,6.63
2022-10-18T07:03:14.961Z,6.18
2022-10-18T07:05:42.990Z,5.68
2022-10-18T07:08:10.936Z,6.25
2022-10-18T07:10:38.795Z,6.80
2022-10-18T07:13:31.396Z,6.05
2022-10-18T07:16:03.538Z,6.32
2022-10-18T07:18:31.763Z,6.28
2022-10-18T07:21:02.437Z,6.88
2022-10-18T07:23:30.482Z,5.65
2022-10-18T07:25:58.380Z,6.45
2022-10-18T07:28:26.318Z,6.18
2022-10-18T07:30:54.692Z,5.85
2022-10-18T07:33:25.884Z,5.85
2022-10-18T07:35:53.689Z,6.53
2022-10-18T07:38:22.699Z,6.30
2022-10-18T07:41:02.377Z,5.82
2022-10-18T07:43:31.014Z,5.70
2022-10-18T07:46:02.524Z,5.90
2022-10-18T07:48:32.334Z,6.03
2022-10-18T07:51:01.107Z,5.35
2022-10-18T07:53:29.830Z,5.75
2022-10-18T07:56:03.493Z,5.55
2022-10-18T07:58:34.689Z,6.18
2022-10-18T08:01:04.255Z,5.72
2022-10-18T08:03:34.199Z,5.38
2022-10-18T08:06:02.408Z,5.60
2022-10-18T08:08:31.217Z,5.20
2022-10-18T08:11:03.400Z,5.40
2022-10-18T08:13:31.689Z,5.57
2022-10-18T08:16:03.785Z,5.75
2022-10-18T08:18:33.249Z,5.30
2022-10-18T08:21:01.293Z,4.45
2022-10-18T08:23:29.343Z,4.15
2022-10-18T08:25:57.312Z,4.30
2022-10-18T08:28:25.347Z,3.90
2022-10-18T08:30:53.498Z,3.60
2022-10-18T08:33:21.338Z,3.47
2022-10-18T08:35:57.473Z,3.15
2022-10-18T08:38:25.773Z,3.22
2022-10-18T08:40:53.784Z,3.30
2022-10-18T08:43:32.619Z,3.13
2022-10-18T08:46:00.704Z,3.40
2022-10-18T08:48:36.387Z,2.38
2022-10-18T08:51:12.692Z,2.45
2022-10-18T08:53:52.412Z,2.45
2022-10-18T08:56:24.308Z,2.70
2022-10-18T08:58:52.178Z,3.03
2022-10-18T09:01:33.643Z,3.22
2022-10-18T09:04:24.252Z,3.50
2022-10-18T09:07:06.381Z,3.50
2022-10-18T09:09:43.137Z,3.85
2022-10-18T09:12:32.215Z,3.88
2022-10-18T09:15:30.756Z,3.60
2022-10-18T09:18:10.331Z,3.40
2022-10-18T09:20:50.061Z,3.88
2022-10-18T09:23:22.945Z,3.80
2022-10-18T09:25:56.707Z,3.75
2022-10-18T09:28:37.359Z,4.18
2022-10-18T09:31:14.358Z,4.80
2022-10-18T09:33:53.334Z,4.57
2022-10-18T09:36:24.495Z,4.03
2022-10-18T09:39:00.327Z,4.57
2022-10-18T09:41:33.473Z,4.90
2022-10-18T09:44:06.736Z,5.05
2022-10-18T09:46:39.898Z,5.00
2022-10-18T09:49:16.339Z,5.30
2022-10-18T09:51:46.073Z,4.43
2022-10-18T09:54:21.645Z,4.25
2022-10-18T09:56:51.936Z,4.97
2022-10-18T09:59:38.673Z,5.18
2022-10-18T10:02:07.557Z,5.18
2022-10-18T10:04:35.745Z,4.53
2022-10-18T10:07:08.035Z,4.40
2022-10-18T10:09:45.862Z,4.65
2022-10-18T10:12:28.445Z,4.63
2022-10-18T10:14:56.766Z,4.93
2022-10-18T10:17:27.579Z,4.57
2022-10-18T10:19:59.884Z,4.47
2022-10-18T10:22:30.483Z,5.20
2022-10-18T10:25:00.863Z,5.30
2022-10-18T10:27:34.985Z,4.82
2022-10-18T10:30:07.062Z,4.93
2022-10-18T10:32:47.810Z,5.13
2022-10-18T10:35:53.574Z,4.93
2022-10-18T10:38:24.960Z,4.57
2022-10-18T10:40:55.116Z,4.65
2022-10-18T10:43:42.539Z,4.65
2022-10-18T10:46:13.687Z,4.68
2022-10-18T10:48:56.289Z,4.03
2022-10-18T10:51:34.641Z,3.92
2022-10-18T10:54:04.706Z,3.22
2022-10-18T10:56:37.056Z,3.03
2022-10-18T10:59:11.656Z,2.70
2022-10-18T11:01:39.511Z,2.47
2022-10-18T11:04:26.436Z,3.00
2022-10-18T11:07:11.082Z,2.50
2022-10-18T11:09:49.259Z,2.30
2022-10-18T11:12:27.661Z,2.40
2022-10-18T11:15:18.089Z,2.35
2022-10-18T11:17:57.423Z,2.75
2022-10-18T11:20:29.526Z,3.03
2022-10-18T11:23:01.798Z,3.13
2022-10-18T11:25:44.479Z,10.90
2022-10-18T11:28:23.295Z,8.63
2022-10-18T11:31:03.563Z,10.65
2022-10-18T11:34:07.599Z,8.25
2022-10-18T11:36:40.373Z,7.38
2022-10-18T11:39:20.525Z,3.88
2022-10-18T11:41:56.571Z,2.55
2022-10-18T11:44:35.667Z,2.78
2022-10-18T11:47:11.151Z,2.20
2022-10-18T11:49:55.101Z,2.25
2022-10-18T11:52:34.449Z,2.17
2022-10-18T11:55:15.615Z,1.92
2022-10-18T11:57:55.838Z,2.30
2022-10-18T12:00:34.394Z,3.40
2022-10-18T12:03:26.310Z,3.35
2022-10-18T12:05:56.708Z,3.60
2022-10-18T12:08:53.545Z,3.22
2022-10-18T12:11:27.082Z,3.20
2022-10-18T12:13:58.870Z,3.38
2022-10-18T12:16:49.858Z,4.30
2022-10-18T12:19:25.410Z,4.07
2022-10-18T12:21:57.521Z,4.50
2022-10-18T12:24:29.175Z,5.05
2022-10-18T12:27:00.855Z,5.30
2022-10-18T12:29:32.557Z,5.60
2022-10-18T12:32:07.344Z,5.68
2022-10-18T12:34:41.773Z,4.82
2022-10-18T12:37:43.990Z,4.70
2022-10-18T12:40:18.823Z,4.07
2022-10-18T12:42:51.379Z,4.15
2022-10-18T12:45:30.094Z,4.32
2022-10-18T12:48:02.888Z,3.80
2022-10-18T12:50:35.107Z,3.90
2022-10-18T12:53:22.793Z,4.07
2022-10-18T12:55:53.615Z,4.28
2022-10-18T12:58:28.721Z,4.63
2022-10-18T13:01:08.035Z,5.97
2022-10-18T13:03:59.502Z,5.60
2022-10-18T13:07:05.935Z,5.65
2022-10-18T13:09:36.454Z,6.13
2022-10-18T13:12:49.086Z,5.53
2022-10-18T13:15:39.612Z,6.38
2022-10-18T13:18:17.107Z,6.88
2022-10-18T13:20:52.196Z,7.45
2022-10-18T13:23:39.137Z,8.90
2022-10-18T13:26:23.105Z,8.75
2022-10-18T13:28:57.579Z,9.18
2022-10-18T13:31:36.317Z,8.60
2022-10-18T13:34:28.482Z,8.95
2022-10-18T13:37:01.267Z,8.80
2022-10-18T13:39:29.816Z,10.10
2022-10-18T13:42:31.755Z,11.13
2022-10-18T13:45:36.147Z,10.43
2022-10-18T13:48:48.094Z,9.73
2022-10-18T13:51:39.099Z,10.15
2022-10-18T13:54:26.370Z,10.38
2022-10-18T13:57:09.634Z,11.48
2022-10-18T13:59:55.473Z,9.43
2022-10-18T14:02:51.546Z,11.18
2022-10-18T14:05:41.293Z,10.68
2022-10-18T14:08:16.251Z,10.45
2022-10-18T14:11:03.270Z,10.57
2022-10-18T14:13:40.606Z,11.52
2022-10-18T14:16:24.697Z,11.05
2022-10-18T14:18:56.448Z,11.38
2022-10-18T14:21:31.549Z,12.27
2022-10-18T14:23:59.991Z,12.43
2022-10-18T14:26:29.356Z,12.90
2022-10-18T14:29:05.382Z,12.95
2022-10-18T14:31:35.955Z,12.00
2022-10-18T14:34:04.330Z,13.60
2022-10-18T14:36:40.756Z,11.73
2022-10-18T14:39:19.633Z,13.10
2022-10-18T14:41:50.967Z,12.13
2022-10-18T14:44:21.410Z,11.90
2022-10-18T14:46:52.453Z,13.95
2022-10-18T14:49:21.556Z,15.30
2022-10-18T14:51:52.236Z,17.42
2022-10-18T14:54:24.004Z,18.35
2022-10-18T14:56:54.644Z,18.48
2022-10-18T14:59:26.069Z,20.52
2022-10-18T15:01:57.710Z,23.17
2022-10-18T15:04:32.570Z,21.90
2022-10-18T15:07:03.008Z,23.38
2022-10-18T15:09:33.257Z,26.83
2022-10-18T15:12:03.124Z,27.33
2022-10-18T15:14:31.794Z,28.98
2022-10-18T15:17:05.584Z,29.80
2022-10-18T15:19:35.505Z,29.75
2022-10-18T15:22:31.187Z,30.65
2022-10-18T15:25:15.247Z,31.80
2022-10-18T15:27:46.277Z,31.08
2022-10-18T15:30:20.620Z,31.52
2022-10-18T15:32:52.118Z,30.23
2022-10-18T15:35:26.176Z,30.88
2022-10-18T15:37:55.711Z,31.15
2022-10-18T15:40:33.744Z,30.02
2022-10-18T15:43:03.944Z,30.27
2022-10-18T15:45:35.428Z,30.02
2022-10-18T15:48:21.681Z,30.88
2022-10-18T15:50:51.831Z,31.85
2022-10-18T15:53:33.778Z,32.53
2022-10-18T15:56:03.637Z,29.15
2022-10-18T15:58:40.184Z,31.95
2022-10-18T16:01:16.329Z,31.75
2022-10-18T16:03:47.374Z,31.63
2022-10-18T16:06:18.303Z,31.83
2022-10-18T16:08:48.552Z,32.67
2022-10-18T16:11:18.623Z,32.75
2022-10-18T16:13:46.851Z,34.22
2022-10-18T16:16:18.128Z,29.88
2022-10-18T16:18:47.362Z,31.42
2022-10-18T16:21:18.792Z,32.60
2022-10-18T16:23:46.697Z,33.47
2022-10-18T16:26:14.596Z,34.45
2022-10-18T16:28:42.967Z,32.83
2022-10-18T16:33:43.440Z,33.22
2022-10-18T16:36:15.701Z,31.42
2022-10-18T16:38:45.087Z,31.40
2022-10-18T16:41:15.777Z,32.88
2022-10-18T16:43:44.597Z,30.65
2022-10-18T16:46:16.601Z,30.95
2022-10-18T16:48:45.280Z,30.10
2022-10-18T16:51:14.610Z,29.70
2022-10-18T16:53:42.817Z,30.23
2022-10-18T16:56:15.583Z,27.77
2022-10-18T16:58:43.718Z,25.92
2022-10-18T17:01:12.956Z,26.80
2022-10-18T17:03:41.526Z,28.20
2022-10-18T17:06:17.586Z,24.58
2022-10-18T17:08:45.943Z,25.42
2022-10-18T17:11:15.821Z,26.40
2022-10-18T17:13:43.988Z,24.77
2022-10-18T17:16:24.074Z,23.90
2022-10-18T17:18:52.368Z,22.88
2022-10-18T17:21:21.902Z,22.15
2022-10-18T17:23:50.068Z,22.10
2022-10-18T17:26:28.798Z,22.33
2022-10-18T17:28:59.520Z,22.38
2022-10-18T17:31:28.122Z,22.75
2022-10-18T17:33:55.976Z,21.27
2022-10-18T17:36:25.272Z,21.63
2022-10-18T17:38:53.333Z,20.75
2022-10-18T17:41:21.784Z,20.50
2022-10-18T17:43:49.954Z,22.60
2022-10-18T17:46:18.139Z,17.75
2022-10-18T17:48:47.484Z,19.90
2022-10-18T17:51:17.529Z,18.25
2022-10-18T17:53:47.288Z,19.17
2022-10-18T17:56:16.475Z,18.73
2022-10-18T17:58:45.265Z,17.52
2022-10-18T18:01:15.258Z,17.23
2022-10-18T18:03:43.775Z,20.13
2022-10-18T18:06:17.696Z,20.15
2022-10-18T18:08:47.975Z,20.40
2022-10-18T18:11:16.804Z,17.58
2022-10-18T18:13:44.703Z,15.88
2022-10-18T18:16:15.045Z,14.57
2022-10-18T18:18:43.219Z,14.77
2022-10-18T18:21:11.235Z,14.90
2022-10-18T18:23:39.797Z,14.80
2022-10-18T18:26:10.626Z,14.27
2022-10-18T18:28:39.275Z,13.32
2022-10-18T18:31:08.255Z,13.63
2022-10-18T18:33:36.387Z,12.95
2022-10-18T18:36:06.782Z,12.75
2022-10-18T18:38:36.847Z,13.10
2022-10-18T18:41:11.160Z,12.95
2022-10-18T18:43:41.273Z,11.80
2022-10-18T18:46:10.416Z,12.05
2022-10-18T18:48:38.641Z,13.15
2022-10-18T18:51:09.283Z,13.88
2022-10-18T18:53:38.422Z,13.25
2022-10-18T18:56:09.107Z,13.20
2022-10-18T18:58:40.170Z,12.20
2022-10-18T19:01:09.746Z,11.38
2022-10-18T19:03:40.236Z,11.35
2022-10-18T19:06:10.978Z,12.35
2022-10-18T19:08:40.850Z,11.73
2022-10-18T19:11:10.008Z,12.15
2022-10-18T19:13:39.200Z,10.93
2022-10-18T19:16:21.636Z,11.13
2022-10-18T19:18:58.902Z,11.35
2022-10-18T19:21:29.280Z,10.65
2022-10-18T19:23:58.028Z,11.23
2022-10-18T19:26:37.918Z,11.43
2022-10-18T19:29:09.829Z,11.63
2022-10-18T19:31:39.230Z,11.75
2022-10-18T19:34:12.236Z,11.88
2022-10-18T19:36:41.616Z,10.98
2022-10-18T19:39:14.774Z,10.90
2022-10-18T19:41:42.934Z,11.38
2022-10-18T19:44:12.701Z,10.32
2022-10-18T19:46:41.120Z,10.25
2022-10-18T19:49:09.469Z,10.30
2022-10-18T19:51:38.578Z,10.50
2022-10-18T19:54:07.062Z,10.38
2022-10-18T19:56:35.849Z,10.88
2022-10-18T19:59:03.854Z,10.18
2022-10-18T20:01:33.318Z,10.57
2022-10-18T20:04:03.785Z,10.90
2022-10-18T20:06:31.972Z,10.32
2022-10-18T20:09:00.357Z,10.10
2022-10-18T20:11:30.212Z,10.68
2022-10-18T20:13:59.629Z,10.27
2022-10-18T20:16:29.643Z,11.00
2022-10-18T20:19:01.145Z,10.52
2022-10-18T20:21:31.426Z,10.68
2022-10-18T20:24:00.658Z,10.10
2022-10-18T20:26:31.560Z,10.15
2022-10-18T20:29:00.191Z,10.70
2022-10-18T20:31:30.441Z,11.10
2022-10-18T20:34:01.704Z,10.63
2022-10-18T20:36:31.902Z,10.20
2022-10-18T20:39:01.197Z,10.73
2022-10-18T20:41:30.879Z,11.00
2022-10-18T20:44:01.160Z,11.03
2022-10-18T20:46:32.466Z,10.70
2022-10-18T20:49:02.162Z,11.70
2022-10-18T20:51:30.299Z,12.02
2022-10-18T20:53:58.641Z,11.95
2022-10-18T20:56:27.555Z,11.23
2022-10-18T20:58:57.760Z,11.15
2022-10-18T21:01:28.249Z,12.70
2022-10-18T21:03:59.297Z,12.68
2022-10-18T21:06:33.141Z,12.45
2022-10-18T21:09:03.298Z,12.18
2022-10-18T21:11:32.220Z,11.95
2022-10-18T21:14:02.692Z,12.07
2022-10-18T21:16:31.859Z,12.07
2022-10-18T21:19:03.498Z,13.13
2022-10-18T21:21:33.439Z,11.87
2022-10-18T21:24:05.339Z,11.68
2022-10-18T21:26:36.938Z,11.85
2022-10-18T21:29:06.572Z,10.63
2022-10-18T21:31:36.510Z,12.02
2022-10-18T21:34:06.470Z,10.52
2022-10-18T21:36:37.835Z,10.68
2022-10-18T21:39:08.005Z,12.18
2022-10-18T21:41:36.341Z,12.23
2022-10-18T21:44:08.319Z,10.23
2022-10-18T21:46:39.238Z,9.37
2022-10-18T21:49:08.178Z,8.70
2022-10-18T21:51:38.354Z,9.43
2022-10-18T21:54:08.573Z,9.85
2022-10-18T21:56:37.158Z,10.47
2022-10-18T21:59:05.392Z,9.40
2022-10-18T22:01:35.385Z,9.48
2022-10-18T22:04:06.522Z,9.93
2022-10-18T22:06:37.188Z,10.45
2022-10-18T22:09:08.311Z,9.70
2022-10-18T22:11:39.108Z,10.07
2022-10-18T22:14:07.184Z,8.67
2022-10-18T22:16:35.383Z,9.98
2022-10-18T22:19:06.387Z,10.40
2022-10-18T22:21:35.391Z,10.27
2022-10-18T22:24:07.805Z,11.40
2022-10-18T22:26:37.905Z,11.95
2022-10-18T22:29:07.785Z,12.65
2022-10-18T22:31:37.626Z,12.00
2022-10-18T22:34:07.830Z,10.87
2022-10-18T22:36:36.113Z,10.25
2022-10-18T22:39:06.507Z,10.93
2022-10-18T22:41:35.608Z,10.75
2022-10-18T22:44:04.253Z,10.50
2022-10-18T22:46:33.160Z,9.70
2022-10-18T22:49:01.116Z,9.65
2022-10-18T22:51:29.039Z,10.32
2022-10-18T22:53:57.037Z,9.30
2022-10-18T22:56:26.928Z,11.38
2022-10-18T22:58:54.885Z,10.43
2022-10-18T23:01:24.406Z,10.85
2022-10-18T23:03:56.070Z,11.07
2022-10-18T23:06:25.900Z,10.40
2022-10-18T23:08:55.578Z,10.50
2022-10-18T23:11:24.533Z,11.27
2022-10-18T23:13:54.168Z,10.90
2022-10-18T23:16:22.337Z,10.25
2022-10-18T23:18:52.030Z,10.15
2022-10-18T23:21:20.975Z,10.77
2022-10-18T23:23:48.931Z,11.65
2022-10-18T23:26:18.758Z,11.93
2022-10-18T23:28:48.407Z,12.00
2022-10-18T23:31:19.162Z,10.80
2022-10-18T23:33:48.347Z,12.00
2022-10-18T23:36:17.021Z,9.82
2022-10-18T23:38:44.982Z,9.07
2022-10-18T23:41:15.157Z,10.32
2022-10-18T23:43:43.777Z,10.55
2022-10-18T23:46:13.085Z,9.80
2022-10-18T23:48:42.611Z,9.40
2022-10-18T23:51:11.421Z,11.97
2022-10-18T23:53:39.642Z,10.20
2022-10-18T23:56:10.029Z,11.07
2022-10-18T23:58:38.564Z,11.32
